Time;durP1;ratioP1;P1;durP2;ratioP2;P2;SDS_P1;SDS_P2;PMS_P1;PMS_P2;Temp;Humidity;BMP_temperature;BMP_pressure;BME280_temperature;BME280_humidity;BME280_pressure;Samples;Min_cycle;Max_cycle;Signal;HPM_P1;HPM_P2
2024/02/06 00:02:17;;;;;;;12.85;5.15;;;9.20;99.90;;;8.98;80.50;100477.63;5035013;28;20440;-80
2024/02/06 00:04:44;;;;;;;12.50;5.35;;;9.20;99.90;;;8.97;80.37;100483.13;5049208;28;20042;-80
2024/02/06 00:07:12;;;;;;;10.18;5.35;;;9.20;99.90;;;8.96;80.65;100478.81;5018429;28;20115;-80
2024/02/06 00:09:39;;;;;;;16.00;6.10;;;9.20;99.90;;;9.00;80.60;100466.78;4970471;28;20478;-80
2024/02/06 00:12:10;;;;;;;14.00;5.97;;;9.20;99.90;;;9.07;80.37;100464.13;5016925;28;20097;-80
2024/02/06 00:14:37;;;;;;;14.38;6.40;;;9.30;99.90;;;9.03;80.48;100459.22;5035423;28;20132;-80
2024/02/06 00:17:06;;;;;;;11.50;5.82;;;9.20;99.90;;;9.02;80.71;100456.72;5025199;28;20038;-80
2024/02/06 00:19:35;;;;;;;14.50;6.10;;;9.20;99.90;;;9.09;80.49;100460.25;5016070;28;20083;-80
2024/02/06 00:22:02;;;;;;;13.75;6.22;;;9.30;99.90;;;9.08;80.45;100450.63;5015672;28;20069;-80
2024/02/06 00:24:29;;;;;;;13.52;5.70;;;9.20;99.90;;;9.06;80.54;100452.66;5033574;28;20046;-80
2024/02/06 00:26:59;;;;;;;13.45;5.80;;;9.20;99.90;;;9.08;80.68;100439.16;5031682;28;20045;-80
2024/02/06 00:29:28;;;;;;;14.57;6.20;;;9.20;99.90;;;9.13;80.58;100437.53;4998100;28;20077;-80
2024/02/06 00:31:55;;;;;;;14.88;6.68;;;9.20;99.90;;;9.06;80.24;100435.88;4998849;28;20054;-80
2024/02/06 00:34:23;;;;;;;12.40;6.40;;;9.20;99.90;;;9.07;80.67;100443.66;5014932;28;20509;-80
2024/02/06 00:36:51;;;;;;;14.82;6.82;;;9.20;99.90;;;9.10;80.67;100443.25;5014556;28;20145;-80
2024/02/06 00:39:19;;;;;;;15.57;5.95;;;9.30;99.90;;;9.07;80.67;100433.00;4998329;28;20050;-80
2024/02/06 00:41:47;;;;;;;17.98;6.47;;;9.30;99.90;;;9.02;80.99;100440.78;5015983;28;20049;-80
2024/02/06 00:44:14;;;;;;;15.95;6.07;;;9.20;99.90;;;9.08;80.88;100432.00;5016080;28;20635;-80
2024/02/06 00:46:41;;;;;;;15.23;6.05;;;9.20;99.90;;;9.08;80.98;100426.69;5017378;28;20273;-80
2024/02/06 00:49:09;;;;;;;12.57;6.38;;;9.20;99.90;;;9.05;81.33;100423.59;5035419;28;20464;-80
2024/02/06 00:51:36;;;;;;;15.68;6.53;;;9.20;99.90;;;9.00;81.28;100417.03;5050833;28;20152;-80
2024/02/06 00:54:06;;;;;;;14.75;6.20;;;9.20;99.90;;;8.98;81.51;100418.28;5050446;28;20095;-80
2024/02/06 00:56:33;;;;;;;14.90;5.97;;;9.20;99.90;;;8.99;81.50;100412.75;5001676;28;20045;-80
2024/02/06 00:59:01;;;;;;;13.55;6.15;;;9.20;99.90;;;9.03;81.57;100419.31;5035089;28;20037;-80
2024/02/06 01:01:29;;;;;;;13.48;6.22;;;9.20;99.90;;;9.09;81.23;100414.19;5017766;28;20080;-80
2024/02/06 01:03:56;;;;;;;16.48;6.43;;;9.30;99.90;;;8.99;80.98;100409.28;5035296;28;20049;-80
2024/02/06 01:06:24;;;;;;;13.07;5.45;;;9.20;99.90;;;9.00;80.78;100416.22;5017629;28;20069;-80
2024/02/06 01:08:52;;;;;;;12.20;5.93;;;9.20;99.90;;;8.99;81.16;100411.94;5017606;28;20049;-80
2024/02/06 01:11:24;;;;;;;13.55;6.03;;;9.20;99.90;;;9.01;80.95;100401.91;5016250;28;20044;-80
2024/02/06 01:13:52;;;;;;;11.63;6.20;;;9.20;99.90;;;9.08;80.80;100404.56;5035187;28;20529;-80
2024/02/06 01:16:20;;;;;;;11.05;5.47;;;9.30;99.90;;;9.10;80.72;100403.34;5016963;28;20046;-80
2024/02/06 01:18:47;;;;;;;18.45;5.82;;;9.30;99.90;;;9.10;80.51;100403.34;4995446;28;20125;-80
2024/02/06 01:21:18;;;;;;;11.50;5.90;;;9.30;99.90;;;9.13;80.04;100394.16;5011671;28;20041;-80
2024/02/06 01:23:45;;;;;;;11.57;5.17;;;9.40;99.90;;;9.14;79.64;100388.63;5017575;28;20049;-80
2024/02/06 01:26:15;;;;;;;15.20;5.68;;;9.30;99.90;;;9.10;79.62;100389.22;5030746;28;20123;-80
2024/02/06 01:28:45;;;;;;;15.13;5.80;;;9.40;99.90;;;9.05;79.81;100387.19;5015147;28;20042;-80
2024/02/06 01:31:14;;;;;;;13.25;5.78;;;9.30;99.90;;;9.07;79.98;100378.97;4981571;28;20060;-80
2024/02/06 01:33:41;;;;;;;10.77;5.55;;;9.30;99.90;;;9.11;79.75;100377.56;4996881;28;20114;-80
2024/02/06 01:36:09;;;;;;;14.23;5.50;;;9.30;99.90;;;9.12;79.57;100374.69;5034986;28;20068;-80
2024/02/06 01:38:38;;;;;;;16.65;5.63;;;9.40;99.90;;;9.15;79.68;100378.78;5017139;28;20088;-80
2024/02/06 01:41:05;;;;;;;12.05;5.10;;;9.40;99.90;;;9.15;79.32;100376.13;5017207;28;20438;-80
2024/02/06 01:43:34;;;;;;;10.85;4.70;;;9.40;99.90;;;9.19;79.28;100372.06;5035187;28;20037;-80
2024/02/06 01:46:02;;;;;;;11.88;5.30;;;9.40;99.90;;;9.18;78.84;100363.25;5050242;28;20129;-80
2024/02/06 01:48:30;;;;;;;15.77;5.47;;;9.40;99.90;;;9.18;78.74;100347.28;5045719;28;20417;-80
2024/02/06 01:50:58;;;;;;;11.15;4.82;;;9.40;99.90;;;9.18;78.51;100362.44;5014942;28;20502;-80
2024/02/06 01:53:27;;;;;;;12.50;5.30;;;9.40;99.90;;;9.23;78.71;100359.97;5013746;28;20050;-80
2024/02/06 01:55:55;;;;;;;11.73;4.93;;;9.50;99.90;;;9.24;78.53;100357.09;5015110;28;20046;-80
2024/02/06 01:58:23;;;;;;;16.52;5.20;;;9.50;99.90;;;9.29;78.18;100349.31;4981625;28;20050;-80
2024/02/06 02:00:52;;;;;;;9.77;4.45;;;9.50;99.90;;;9.28;77.98;100368.16;5030696;28;20038;-80
2024/02/06 02:03:22;;;;;;;11.10;4.88;;;9.50;99.90;;;9.27;77.88;100348.72;5014555;28;20092;-80
2024/02/06 02:05:50;;;;;;;12.43;5.10;;;9.50;99.90;;;9.32;77.76;100345.44;5014727;28;20081;-80
2024/02/06 02:08:19;;;;;;;14.35;5.90;;;9.50;99.90;;;9.29;77.19;100343.19;4979864;28;20289;-80
2024/02/06 02:10:47;;;;;;;14.25;5.15;;;9.50;99.90;;;9.31;77.52;100353.63;4981055;28;20440;-80
2024/02/06 02:13:14;;;;;;;13.70;4.88;;;9.50;99.90;;;9.28;77.45;100341.56;5007441;28;20130;-80
2024/02/06 02:15:42;;;;;;;12.07;4.32;;;9.50;99.90;;;9.29;77.58;100343.19;5034060;28;20042;-80
2024/02/06 02:18:10;;;;;;;12.10;4.95;;;9.50;99.90;;;9.29;77.22;100341.34;5000029;28;20132;-80
2024/02/06 02:20:39;;;;;;;14.52;5.40;;;9.50;99.90;;;9.30;77.31;100334.16;5007664;28;20128;-80
2024/02/06 02:23:08;;;;;;;13.23;4.60;;;9.50;99.90;;;9.31;77.22;100337.66;5030036;28;20053;-80
2024/02/06 02:25:36;;;;;;;13.75;4.90;;;9.50;99.90;;;9.31;77.16;100334.97;5030308;28;20100;-80
2024/02/06 02:28:05;;;;;;;16.48;4.97;;;9.50;99.90;;;9.33;76.90;100339.09;5034534;28;20420;-80
2024/02/06 02:30:33;;;;;;;14.48;5.07;;;9.60;99.90;;;9.31;77.20;100335.81;5016861;28;20489;-80
2024/02/06 02:33:03;;;;;;;14.90;5.10;;;9.60;99.90;;;9.33;77.36;100331.09;5000342;28;20045;-80
2024/02/06 02:35:31;;;;;;;13.77;5.10;;;9.60;99.90;;;9.31;76.74;100329.66;5018377;28;20049;-80
2024/02/06 02:37:59;;;;;;;12.25;5.00;;;9.50;99.90;;;9.28;77.17;100322.94;5003589;28;20504;-80
2024/02/06 02:40:28;;;;;;;12.00;5.10;;;9.50;99.90;;;9.22;77.20;100319.25;5037692;28;20049;-80
2024/02/06 02:42:55;;;;;;;17.48;5.40;;;9.50;99.90;;;9.29;77.18;100329.88;5003235;28;20045;-80
2024/02/06 02:45:22;;;;;;;10.65;5.13;;;9.60;99.90;;;9.31;77.32;100324.34;5000720;28;20132;-80
2024/02/06 02:47:50;;;;;;;15.27;5.40;;;9.50;99.90;;;9.28;76.99;100318.41;5018090;28;20096;-80
2024/02/06 02:50:17;;;;;;;14.10;5.18;;;9.50;99.90;;;9.20;76.68;100325.78;4984503;28;20073;-80
2024/02/06 02:52:45;;;;;;;12.23;5.18;;;9.50;99.90;;;9.23;76.86;100314.75;5000301;28;20096;-80
2024/02/06 02:55:12;;;;;;;12.63;4.90;;;9.50;99.90;;;9.25;76.84;100312.69;5017997;28;20041;-80
2024/02/06 02:57:41;;;;;;;13.98;4.85;;;9.50;99.90;;;9.26;76.78;100317.78;4983851;28;20487;-80
2024/02/06 03:00:11;;;;;;;13.88;5.00;;;9.50;99.90;;;9.26;76.61;100298.34;5000348;28;20596;-80
2024/02/06 03:02:38;;;;;;;12.80;4.90;;;9.50;99.90;;;9.26;76.62;100293.84;5017754;28;20041;-80
2024/02/06 03:05:08;;;;;;;14.80;4.55;;;9.60;99.90;;;9.33;76.80;100298.34;5010906;28;20124;-80
2024/02/06 03:07:35;;;;;;;16.85;5.53;;;9.60;99.90;;;9.35;76.28;100296.28;5052789;28;20053;-80
2024/02/06 03:10:05;;;;;;;12.82;5.78;;;9.60;99.90;;;9.33;76.24;100293.03;5036803;28;20053;-80
2024/02/06 03:12:33;;;;;;;13.73;5.38;;;9.60;99.90;;;9.31;76.45;100287.91;5036649;28;20056;-80
2024/02/06 03:15:03;;;;;;;12.05;4.75;;;9.60;99.90;;;9.34;76.40;100289.34;5019062;28;20063;-80
2024/02/06 03:17:30;;;;;;;11.38;4.90;;;9.60;99.90;;;9.36;76.54;100281.94;5019645;28;20046;-80
2024/02/06 03:19:58;;;;;;;14.35;5.22;;;9.60;99.90;;;9.37;76.50;100273.78;5018849;28;20034;-80
2024/02/06 03:22:31;;;;;;;16.48;5.07;;;9.60;99.90;;;9.39;76.06;100261.06;5040985;28;20116;-80
2024/02/06 03:24:59;;;;;;;11.45;4.47;;;9.60;99.90;;;9.39;76.10;100260.25;5036856;28;20052;-80
2024/02/06 03:27:26;;;;;;;10.85;4.78;;;9.60;99.90;;;9.36;76.04;100250.84;5037356;28;20041;-80
2024/02/06 03:29:53;;;;;;;12.00;5.25;;;9.60;99.90;;;9.36;76.52;100255.34;5037503;28;20104;-80
2024/02/06 03:32:22;;;;;;;17.08;5.15;;;9.60;99.90;;;9.37;76.00;100246.31;5019722;28;20409;-80
2024/02/06 03:34:50;;;;;;;15.15;4.68;;;9.60;99.90;;;9.34;76.19;100252.91;5052133;28;20046;-80
2024/02/06 03:37:18;;;;;;;11.70;4.47;;;9.60;99.90;;;9.35;76.22;100240.41;5018922;28;20065;-80
2024/02/06 03:39:46;;;;;;;9.77;4.03;;;9.60;99.90;;;9.38;76.01;100255.97;5018809;28;20481;-80
2024/02/06 03:42:14;;;;;;;13.00;4.90;;;9.60;99.90;;;9.26;75.89;100245.13;5002298;28;20069;-80
2024/02/06 03:44:41;;;;;;;11.07;4.38;;;9.60;99.90;;;9.31;76.31;100228.53;5018860;28;20100;-80
2024/02/06 03:47:09;;;;;;;11.95;4.47;;;9.60;99.90;;;9.35;75.98;100235.06;5018425;28;20092;-80
2024/02/06 03:49:37;;;;;;;12.15;3.97;;;9.60;99.90;;;9.39;76.14;100233.63;5036963;28;20079;-80
2024/02/06 03:52:06;;;;;;;14.10;4.47;;;9.60;99.90;;;9.36;75.79;100244.69;5036708;28;20432;-80
2024/02/06 03:54:33;;;;;;;15.23;4.90;;;9.60;99.90;;;9.37;75.64;100241.84;5037185;28;20468;-80
2024/02/06 03:57:00;;;;;;;14.10;4.75;;;9.60;99.90;;;9.38;75.75;100246.13;5018706;28;20042;-80
2024/02/06 03:59:28;;;;;;;10.93;4.32;;;9.70;99.90;;;9.37;75.49;100238.34;5034965;28;20132;-80
2024/02/06 04:01:55;;;;;;;15.60;5.22;;;9.60;99.90;;;9.38;75.91;100240.00;5018665;28;20050;-80
2024/02/06 04:04:25;;;;;;;12.18;4.40;;;9.60;99.90;;;9.32;75.61;100228.34;5036863;28;20049;-80
2024/02/06 04:06:54;;;;;;;12.98;4.30;;;9.60;99.90;;;9.27;75.83;100236.94;5051473;28;20104;-80
2024/02/06 04:09:21;;;;;;;13.27;4.97;;;9.60;99.90;;;9.29;75.85;100245.53;5036119;28;20048;-80
2024/02/06 04:11:49;;;;;;;17.27;4.55;;;9.60;99.90;;;9.36;75.86;100229.53;5018702;28;20103;-80
2024/02/06 04:14:17;;;;;;;11.68;4.55;;;9.60;99.90;;;9.36;75.41;100218.88;5034625;28;20037;-80
2024/02/06 04:16:44;;;;;;;12.27;4.40;;;9.60;99.90;;;9.36;75.74;100237.53;5035474;28;20060;-80
2024/02/06 04:19:13;;;;;;;14.65;5.07;;;9.70;99.90;;;9.40;75.75;100229.94;5036116;28;20037;-80
2024/02/06 04:21:40;;;;;;;14.93;5.00;;;9.70;99.90;;;9.39;75.65;100234.44;5036058;28;20045;-80
2024/02/06 04:24:10;;;;;;;12.38;4.13;;;9.70;99.90;;;9.37;75.31;100231.19;5018466;28;20057;-80
2024/02/06 04:26:38;;;;;;;16.50;5.03;;;9.80;99.90;;;9.39;75.84;100215.81;5036236;28;20045;-80
2024/02/06 04:29:06;;;;;;;9.52;3.83;;;9.70;99.90;;;9.41;75.59;100224.41;5035654;28;20037;-80
2024/02/06 04:31:33;;;;;;;11.70;4.38;;;9.70;99.90;;;9.43;75.48;100222.38;5036047;28;20084;-80
2024/02/06 04:34:00;;;;;;;12.13;4.90;;;9.70;99.90;;;9.45;75.48;100214.16;5035792;28;20494;-80
2024/02/06 04:36:28;;;;;;;15.98;4.68;;;9.70;99.90;;;9.47;75.40;100207.63;5035995;28;20041;-80
2024/02/06 04:38:55;;;;;;;13.15;4.70;;;9.70;99.90;;;9.51;75.33;100223.97;5018062;28;20037;-80
2024/02/06 04:41:26;;;;;;;12.80;4.30;;;9.70;99.90;;;9.47;75.17;100215.59;5035396;28;20049;-80
2024/02/06 04:43:54;;;;;;;;;;;9.70;99.90;;;9.51;75.24;100221.31;5036922;28;20049;-80
2024/02/06 04:46:21;;;;;;;12.05;5.20;;;9.70;99.90;;;9.47;75.19;100228.09;5018032;28;19920;-80
2024/02/06 04:48:49;;;;;;;12.32;4.07;;;9.70;99.90;;;9.48;75.48;100216.41;5018388;28;20077;-80
2024/02/06 04:51:17;;;;;;;13.90;4.32;;;9.70;99.90;;;9.48;75.32;100222.56;5017672;28;20080;-80
2024/02/06 04:53:45;;;;;;;10.57;4.43;;;9.70;99.90;;;9.48;75.43;100219.06;5035835;28;20046;-80
2024/02/06 04:56:14;;;;;;;10.85;4.20;;;9.70;99.90;;;9.51;75.51;100234.63;4994628;28;20051;-80
2024/02/06 04:58:43;;;;;;;16.13;4.65;;;9.70;99.90;;;9.52;75.55;100236.28;4978590;28;20501;-80
2024/02/06 05:01:10;;;;;;;22.08;4.75;;;9.70;99.90;;;9.49;75.75;100210.06;4993688;28;20050;-80
2024/02/06 05:03:38;;;;;;;14.27;4.88;;;9.70;99.90;;;9.48;75.75;100211.09;4977729;28;20064;-80
2024/02/06 05:06:06;;;;;;;13.55;4.55;;;9.70;99.90;;;9.49;75.59;100200.22;4993508;28;20050;-80
2024/02/06 05:08:34;;;;;;;15.90;4.60;;;9.70;99.90;;;9.47;75.62;100212.13;4977685;28;20465;-80
2024/02/06 05:11:03;;;;;;;12.23;4.80;;;9.70;99.90;;;9.48;75.59;100205.78;4977517;28;20090;-81
2024/02/06 05:13:30;;;;;;;10.38;4.38;;;9.70;99.90;;;9.46;75.69;100207.81;4994586;28;20513;-80
2024/02/06 05:15:59;;;;;;;12.07;4.70;;;9.70;99.90;;;9.41;75.86;100203.13;4994964;28;20053;-80
2024/02/06 05:18:27;;;;;;;13.30;4.28;;;9.70;99.90;;;9.45;75.93;100192.88;4995672;28;20042;-82
2024/02/06 05:20:57;;;;;;;15.52;4.80;;;9.70;99.90;;;9.46;75.99;100199.81;4994936;28;20046;-83
2024/02/06 05:23:25;;;;;;;14.65;4.53;;;9.70;99.90;;;9.46;75.89;100195.31;4994012;28;20056;-84
2024/02/06 05:25:52;;;;;;;17.85;5.60;;;9.70;99.90;;;9.44;76.15;100191.25;4993363;28;20049;-85
2024/02/06 05:28:21;;;;;;;13.90;4.80;;;9.70;99.90;;;9.43;76.74;100190.44;5012409;28;20037;-85
2024/02/06 05:30:48;;;;;;;16.02;4.55;;;9.70;99.90;;;9.45;76.64;100179.56;5033756;28;20567;-85
2024/02/06 05:33:17;;;;;;;14.23;5.25;;;9.70;99.90;;;9.43;76.88;100177.13;5016851;28;20096;-85
2024/02/06 05:35:45;;;;;;;12.27;5.35;;;9.70;99.90;;;9.48;76.79;100174.63;5016148;28;20517;-84
2024/02/06 05:38:12;;;;;;;16.27;5.93;;;9.70;99.90;;;9.50;77.03;100193.88;5016722;28;20125;-84
2024/02/06 05:40:40;;;;;;;12.45;5.15;;;9.70;99.90;;;9.48;76.69;100173.81;5016315;28;20523;-85
2024/02/06 05:43:07;;;;;;;14.05;4.97;;;9.70;99.90;;;9.42;76.96;100175.50;5017221;28;20050;-85
2024/02/06 05:45:35;;;;;;;16.73;5.38;;;9.70;99.90;;;9.38;77.10;100168.13;5034444;28;20056;-86
2024/02/06 05:48:02;;;;;;;15.48;5.40;;;9.60;99.90;;;9.40;77.31;100158.91;5033588;28;20044;-86
2024/02/06 05:50:31;;;;;;;14.75;5.18;;;9.70;99.90;;;9.44;76.83;100161.97;5033399;28;20045;-86
2024/02/06 05:52:59;;;;;;;15.18;5.28;;;9.70;99.90;;;9.42;76.38;100164.00;5015354;28;20505;-85
2024/02/06 05:55:28;;;;;;;14.73;5.38;;;9.70;99.90;;;9.45;76.84;100168.91;5033793;28;20445;-85
2024/02/06 05:57:56;;;;;;;14.13;5.22;;;9.70;99.90;;;9.43;76.87;100161.16;5033795;28;20069;-85
2024/02/06 06:00:26;;;;;;;12.45;4.78;;;9.70;99.90;;;9.45;76.72;100164.41;4999482;28;20091;-85
2024/02/06 06:02:54;;;;;;;15.30;5.30;;;9.70;99.90;;;9.45;76.48;100161.75;5032859;28;20045;-86
2024/02/06 06:05:27;;;;;;;15.13;5.18;;;9.70;99.90;;;9.40;76.47;100156.25;5015834;28;20042;-85
2024/02/06 06:07:56;;;;;;;17.35;5.22;;;9.70;99.90;;;9.40;76.78;100158.91;5017491;28;20060;-84
2024/02/06 06:10:24;;;;;;;15.43;4.90;;;9.70;99.90;;;9.42;76.61;100142.72;5050779;28;20041;-80
2024/02/06 06:12:51;;;;;;;12.48;5.45;;;9.70;99.90;;;9.45;76.68;100148.44;5012172;28;20042;-80
2024/02/06 06:15:18;;;;;;;15.05;5.32;;;9.70;99.90;;;9.47;76.66;100151.72;5018917;28;20144;-80
2024/02/06 06:17:46;;;;;;;17.08;5.32;;;9.70;99.90;;;9.48;76.74;100141.88;5018717;28;20048;-80
2024/02/06 06:20:14;;;;;;;14.73;6.28;;;9.70;99.90;;;9.49;76.82;100146.19;5018716;28;20038;-80
2024/02/06 06:22:41;;;;;;;15.90;5.95;;;9.70;99.90;;;9.46;76.81;100125.28;5025177;28;20041;-80
2024/02/06 06:25:11;;;;;;;19.65;6.82;;;9.70;99.90;;;9.40;77.10;100126.97;5038143;28;20050;-80
2024/02/06 06:27:41;;;;;;;16.77;6.53;;;9.70;99.90;;;9.45;77.11;100134.31;5036932;28;20463;-80
2024/02/06 06:30:11;;;;;;;14.52;5.65;;;9.70;99.90;;;9.47;77.26;100141.06;5021041;28;20448;-80
2024/02/06 06:32:41;;;;;;;14.55;5.68;;;9.70;99.90;;;9.48;77.16;100131.25;5038469;28;20045;-80
2024/02/06 06:35:09;;;;;;;17.85;6.40;;;9.70;99.90;;;9.46;77.19;100135.94;5015022;28;20072;-80
2024/02/06 06:37:37;;;;;;;22.90;6.32;;;9.70;99.90;;;9.46;77.20;100127.94;5018195;28;20069;-80
2024/02/06 06:40:06;;;;;;;13.65;5.68;;;9.70;99.90;;;9.44;77.33;100133.50;4997263;28;20046;-80
2024/02/06 06:42:35;;;;;;;14.70;5.40;;;9.70;99.90;;;9.43;77.12;100131.06;5052965;28;20128;-80
2024/02/06 06:45:02;;;;;;;19.33;6.70;;;9.70;99.90;;;9.48;77.05;100141.88;5020176;28;20053;-80
2024/02/06 06:47:31;;;;;;;17.83;6.70;;;9.70;99.90;;;9.46;76.90;100134.09;5037853;28;20049;-80
2024/02/06 06:49:59;;;;;;;17.92;5.70;;;9.70;99.90;;;9.45;77.02;100127.13;5037532;28;20049;-80
2024/02/06 06:52:28;;;;;;;13.27;5.55;;;9.80;99.90;;;9.46;77.07;100144.72;5019638;28;20041;-80
2024/02/06 06:54:55;;;;;;;21.23;5.85;;;9.80;99.90;;;9.49;76.99;100138.19;5019654;28;20053;-80
2024/02/06 06:57:23;;;;;;;16.77;5.80;;;9.80;99.90;;;9.46;77.50;100143.91;5037795;28;20087;-80
2024/02/06 06:59:53;;;;;;;13.60;6.10;;;9.80;99.90;;;9.48;77.12;100132.06;5037650;28;20038;-80
2024/02/06 07:02:21;;;;;;;15.18;5.85;;;9.80;99.90;;;9.49;77.15;100138.19;5007617;28;20497;-85
2024/02/06 07:04:49;;;;;;;13.23;5.40;;;9.80;99.90;;;9.52;76.99;100135.13;4984241;28;20057;-88
2024/02/06 07:07:17;;;;;;;13.48;5.82;;;9.80;99.90;;;9.55;77.21;100140.00;5021898;28;20080;-88
2024/02/06 07:09:44;;;;;;;15.00;6.28;;;9.80;99.90;;;9.54;77.42;100138.38;5018115;28;20042;-88
2024/02/06 07:12:12;;;;;;;13.98;5.80;;;9.80;99.90;;;9.53;77.52;100134.88;5051174;28;20038;-88
2024/02/06 07:14:40;;;;;;;15.73;5.18;;;9.80;99.90;;;9.55;77.58;100140.00;5035828;28;20045;-86
2024/02/06 07:17:10;;;;;;;14.88;5.65;;;9.80;99.90;;;9.58;77.77;100136.09;5034357;28;20061;-90
2024/02/06 07:19:37;;;;;;;15.20;5.63;;;9.80;99.90;;;9.60;77.75;100136.69;5051024;28;20171;-90
2024/02/06 07:22:05;;;;;;;18.75;6.43;;;9.80;99.90;;;9.63;77.49;100141.59;5016751;28;20291;-90
2024/02/06 07:24:32;;;;;;;17.13;6.25;;;9.80;99.90;;;9.64;77.33;100133.41;5050636;28;20060;-87
2024/02/06 07:27:00;;;;;;;14.85;5.70;;;9.80;99.90;;;9.62;77.76;100118.69;5001447;28;20047;-87
2024/02/06 07:29:28;;;;;;;18.67;6.47;;;9.80;99.90;;;9.53;78.16;100121.56;5050871;28;20077;-86
2024/02/06 07:31:55;;;;;;;17.02;6.00;;;9.80;99.90;;;9.58;78.16;100120.94;5019491;28;20058;-83
2024/02/06 07:34:24;;;;;;;18.98;6.20;;;9.80;99.90;;;9.55;78.44;100111.53;5038189;28;20435;-82
2024/02/06 07:36:53;;;;;;;14.93;6.15;;;9.80;99.90;;;9.52;78.33;100108.50;5037273;28;20049;-82
2024/02/06 07:39:21;;;;;;;17.33;5.93;;;9.90;99.90;;;9.56;78.68;100101.69;5021209;28;20069;-82
2024/02/06 07:41:48;;;;;;;17.45;6.10;;;9.80;99.90;;;9.60;78.46;100097.56;5004429;28;20050;-82
2024/02/06 07:44:16;;;;;;;13.32;5.72;;;9.80;99.90;;;9.60;78.23;100107.41;5019133;28;20429;-82
2024/02/06 07:46:44;;;;;;;18.40;6.28;;;9.80;99.90;;;9.66;78.16;100117.19;5021670;28;20096;-82
2024/02/06 07:49:12;;;;;;;23.05;6.35;;;9.80;99.90;;;9.63;77.83;100113.13;5019635;28;20084;-82
2024/02/06 07:51:42;;;;;;;15.93;5.63;;;9.80;99.90;;;9.64;77.95;100114.75;5002441;28;20136;-82
2024/02/06 07:54:13;;;;;;;20.23;5.72;;;9.90;99.90;;;9.64;77.49;100106.78;5037846;28;20471;-82
2024/02/06 07:56:41;;;;;;;18.67;6.40;;;9.90;99.90;;;9.65;77.52;100116.38;5036272;28;20041;-82
2024/02/06 07:59:11;;;;;;;18.38;5.45;;;9.90;99.90;;;9.66;77.47;100118.03;5019330;28;20514;-82
2024/02/06 08:01:39;;;;;;;13.40;5.47;;;9.90;99.90;;;9.62;77.61;100121.34;5029024;28;20034;-82
2024/02/06 08:04:07;;;;;;;13.65;5.90;;;9.90;99.90;;;9.66;77.45;100107.38;4999460;28;20092;-82
2024/02/06 08:06:35;;;;;;;19.10;5.93;;;9.90;99.90;;;9.69;77.40;100106.13;5032399;28;20049;-82
2024/02/06 08:09:05;;;;;;;14.45;5.45;;;10.00;99.90;;;9.71;77.22;100104.91;4999773;28;20045;-82
2024/02/06 08:11:33;;;;;;;13.30;5.67;;;10.00;99.90;;;9.71;77.89;100123.53;5017505;28;20046;-82
2024/02/06 08:14:03;;;;;;;19.65;5.97;;;10.00;99.90;;;9.74;78.00;100124.94;5008871;28;20076;-82
2024/02/06 08:16:33;;;;;;;19.45;6.65;;;10.00;99.90;;;9.73;77.95;100121.47;5052780;28;20045;-82
2024/02/06 08:19:01;;;;;;;14.80;5.80;;;10.00;99.90;;;9.74;77.90;100100.97;5052591;28;20108;-82
2024/02/06 08:21:29;;;;;;;14.95;6.38;;;10.00;99.90;;;9.70;77.91;100108.56;5052969;28;20099;-82
2024/02/06 08:23:57;;;;;;;19.17;6.30;;;10.00;99.90;;;9.71;77.46;100104.91;5019841;28;20049;-82
2024/02/06 08:26:26;;;;;;;16.83;5.90;;;10.00;99.90;;;9.73;77.46;100118.00;5018722;28;20045;-82
2024/02/06 08:28:53;;;;;;;22.73;6.25;;;10.00;99.90;;;9.71;77.18;100099.56;5039145;28;20052;-82
2024/02/06 08:31:22;;;;;;;17.27;6.22;;;10.10;99.90;;;9.75;77.17;100084.78;5021297;28;20046;-82
2024/02/06 08:33:50;;;;;;;19.63;6.05;;;10.00;99.90;;;9.74;77.29;100098.31;5021022;28;20136;-82
2024/02/06 08:36:18;;;;;;;18.85;6.38;;;10.10;99.90;;;9.79;77.27;100093.16;5021973;28;20037;-82
2024/02/06 08:38:45;;;;;;;16.38;5.68;;;10.10;99.90;;;9.79;77.25;100088.66;5005496;28;20037;-82
2024/02/06 08:41:13;;;;;;;14.90;5.38;;;10.10;99.90;;;9.84;77.19;100087.19;5004982;28;20068;-81
2024/02/06 08:43:42;;;;;;;20.33;5.80;;;10.10;99.90;;;9.88;76.83;100077.75;5020867;28;20041;-81
2024/02/06 08:46:09;;;;;;;28.40;6.53;;;10.10;99.90;;;9.88;76.53;100078.56;5039445;28;20096;-81
2024/02/06 08:48:37;;;;;;;18.33;5.18;;;10.20;99.90;;;9.89;76.83;100095.34;5039800;28;20045;-82
2024/02/06 08:51:05;;;;;;;14.02;5.22;;;10.20;99.90;;;9.91;76.79;100091.44;5038798;28;20176;-82
2024/02/06 08:53:32;;;;;;;16.67;5.50;;;10.20;99.90;;;9.94;77.24;100083.00;5038719;28;20402;-82
2024/02/06 08:56:02;;;;;;;15.60;5.47;;;10.20;99.90;;;9.92;77.17;100102.91;5019224;28;20513;-82
2024/02/06 08:58:30;;;;;;;15.30;5.22;;;10.20;99.90;;;9.95;77.35;100086.47;5019748;28;20041;-82
2024/02/06 09:01:00;;;;;;;17.23;5.30;;;10.20;99.90;;;9.93;77.46;100065.41;5018814;28;20056;-82
2024/02/06 09:03:27;;;;;;;20.75;5.78;;;10.20;99.90;;;9.95;77.49;100076.63;5018886;28;20128;-82
2024/02/06 09:05:56;;;;;;;18.63;5.72;;;10.20;99.90;;;9.95;77.02;100086.47;5019078;28;20053;-82
2024/02/06 09:08:24;;;;;;;19.50;5.45;;;10.20;99.90;;;10.00;77.26;100086.66;5018964;28;20128;-82
2024/02/06 09:10:51;;;;;;;17.33;5.50;;;10.30;99.90;;;10.01;77.14;100074.97;5051601;28;20051;-82
2024/02/06 09:13:21;;;;;;;16.58;5.68;;;10.30;99.90;;;10.03;77.14;100092.38;5036752;28;20084;-82
2024/02/06 09:15:48;;;;;;;20.35;5.32;;;10.30;99.90;;;10.03;77.06;100081.72;5002657;28;20041;-82
2024/02/06 09:18:19;;;;;;;15.73;5.63;;;10.30;99.90;;;10.03;76.58;100064.91;5051793;28;20528;-82
2024/02/06 09:20:47;;;;;;;19.90;5.72;;;10.30;99.90;;;10.03;76.53;100070.25;5036507;28;20536;-81
2024/02/06 09:23:14;;;;;;;16.45;5.72;;;10.30;99.90;;;10.01;77.18;100080.31;5023901;28;20046;-81
2024/02/06 09:25:43;;;;;;;15.93;5.45;;;10.30;99.90;;;10.03;77.14;100065.72;4999545;28;20080;-82
2024/02/06 09:28:11;;;;;;;17.95;5.40;;;10.40;99.90;;;10.06;76.96;100091.13;4999149;28;20102;-82
2024/02/06 09:30:39;;;;;;;14.13;5.32;;;10.40;99.90;;;10.05;77.28;100090.31;5001267;28;20077;-83
2024/02/06 09:33:07;;;;;;;15.18;4.93;;;10.40;99.90;;;10.07;78.00;100063.44;5016624;28;20038;-82
2024/02/06 09:35:36;;;;;;;25.88;5.88;;;10.40;99.90;;;10.05;78.26;100049.50;4982290;28;20100;-82
2024/02/06 09:38:05;;;;;;;13.88;5.45;;;10.40;99.90;;;10.03;78.94;100068.38;4994810;28;20045;-82
2024/02/06 09:40:32;;;;;;;17.67;6.15;;;10.40;99.90;;;10.02;79.81;100089.94;4997726;28;20073;-82
2024/02/06 09:43:01;;;;;;;19.67;6.10;;;10.30;99.90;;;9.97;80.53;100093.25;5015776;28;20125;-82
2024/02/06 09:45:29;;;;;;;17.48;6.20;;;10.30;99.90;;;9.96;81.99;100093.47;4997547;28;20124;-82
2024/02/06 09:47:57;;;;;;;15.77;6.13;;;10.30;99.90;;;9.93;82.71;100086.72;4998929;28;20559;-82
2024/02/06 09:50:24;;;;;;;18.88;6.53;;;10.20;99.90;;;9.97;82.98;100079.09;5016102;28;20497;-82
2024/02/06 09:52:58;;;;;;;18.77;6.80;;;10.20;99.90;;;9.89;83.58;100071.38;5022432;28;20073;-82
2024/02/06 09:55:28;;;;;;;22.00;6.90;;;10.20;99.90;;;9.86;84.01;100071.78;5033189;28;20109;-82
2024/02/06 09:57:56;;;;;;;17.50;7.00;;;10.20;99.90;;;9.85;84.48;100072.84;5034439;28;20041;-82
2024/02/06 10:00:25;;;;;;;18.00;6.25;;;10.10;99.90;;;9.88;84.81;100077.75;5017364;28;20061;-82
2024/02/06 10:02:59;;;;;;;23.70;6.95;;;10.20;99.90;;;9.79;84.73;100062.00;5035469;28;20401;-82
2024/02/06 10:05:34;;;;;;;19.73;6.82;;;10.10;99.90;;;9.79;84.53;100053.22;5051203;28;20045;-82
2024/02/06 10:08:04;;;;;;;20.13;6.97;;;10.10;99.90;;;9.87;84.43;100057.47;5035851;28;20095;-82
2024/02/06 10:10:32;;;;;;;24.65;7.47;;;10.10;99.90;;;9.90;84.54;100065.00;5050085;28;20044;-82
2024/02/06 10:13:02;;;;;;;23.95;6.40;;;10.20;99.90;;;9.90;84.23;100067.66;5035377;28;20049;-81
2024/02/06 10:15:30;;;;;;;19.95;5.93;;;10.20;99.90;;;9.88;83.90;100030.59;5035022;28;20045;-82
2024/02/06 10:17:58;;;;;;;17.67;6.95;;;10.20;99.90;;;9.87;83.39;100049.47;5016725;28;20041;-81
2024/02/06 10:20:25;;;;;;;15.30;6.07;;;10.20;99.90;;;9.88;83.56;100067.91;5035074;28;20048;-82
2024/02/06 10:22:53;;;;;;;23.08;6.55;;;10.20;99.90;;;9.92;83.37;100050.44;5017159;28;20045;-82